Time;durP1;ratioP1;P1;durP2;ratioP2;P2;SDS_P1;SDS_P2;PMS_P1;PMS_P2;Temp;Humidity;BMP_temperature;BMP_pressure;BME280_temperature;BME280_humidity;BME280_pressure;Samples;Min_cycle;Max_cycle;Signal;HPM_P1;HPM_P2
2023/06/28 00:01:23;;;;;;;9.60;2.78;;;;;;;17.47;65.43;96412.56;5068668;28;20102;-72
2023/06/28 00:03:50;;;;;;;3.97;2.38;;;;;;;17.53;65.72;96415.84;5068958;28;20052;-72
2023/06/28 00:06:19;;;;;;;4.80;2.60;;;;;;;17.48;67.12;96408.66;5050402;28;20045;-72
2023/06/28 00:08:46;;;;;;;5.07;2.47;;;;;;;17.52;66.97;96406.00;5049380;28;20115;-72
2023/06/28 00:11:13;;;;;;;4.32;2.22;;;;;;;17.53;67.00;96415.03;5047475;28;20045;-72
2023/06/28 00:13:40;;;;;;;4.18;2.60;;;;;;;17.23;64.69;96418.38;5049136;28;20045;-73
2023/06/28 00:16:07;;;;;;;7.53;2.75;;;;;;;17.24;62.83;96425.44;5065897;28;20044;-73
2023/06/28 00:18:34;;;;;;;3.85;2.38;;;;;;;17.29;63.26;96422.41;5068971;28;20049;-72
2023/06/28 00:21:02;;;;;;;4.07;2.38;;;;;;;17.28;61.83;96409.81;5068998;28;20566;-72
2023/06/28 00:23:29;;;;;;;3.67;2.05;;;;;;;17.33;63.78;96406.78;5042750;28;20421;-72
2023/06/28 00:25:55;;;;;;;6.88;3.00;;;;;;;17.21;64.26;96413.19;5035529;28;20049;-73
2023/06/28 00:28:22;;;;;;;5.18;2.30;;;;;;;17.29;65.31;96411.41;5048981;28;20057;-72
2023/06/28 00:30:48;;;;;;;5.88;2.53;;;;;;;17.36;67.82;96427.28;5048086;28;20686;-72
2023/06/28 00:33:19;;;;;;;4.50;2.33;;;;;;;17.34;68.23;96435.91;5048741;28;20063;-72
2023/06/28 00:35:46;;;;;;;3.97;2.30;;;;;;;17.31;67.55;96436.59;5068221;28;20044;-72
2023/06/28 00:38:14;;;;;;;5.43;2.75;;;;;;;17.21;68.78;96448.19;5072321;28;20048;-72
2023/06/28 00:40:40;;;;;;;4.40;2.67;;;;;;;17.17;69.56;96452.78;5072545;28;20061;-73
2023/06/28 00:43:07;;;;;;;7.95;3.33;;;;;;;17.16;71.69;96449.25;5072467;28;20044;-74
2023/06/28 00:45:33;;;;;;;7.05;3.20;;;;;;;17.03;72.75;96446.97;5074343;28;20047;-73
2023/06/28 00:48:00;;;;;;;5.70;2.90;;;;;;;16.95;74.17;96451.50;5072873;28;20044;-72
2023/06/28 00:50:27;;;;;;;8.25;3.60;;;;;;;16.77;74.78;96445.59;5072133;28;20043;-73
2023/06/28 00:52:54;;;;;;;7.43;3.45;;;;;;;16.52;74.52;96444.94;5072937;28;20049;-73
2023/06/28 00:55:22;;;;;;;6.93;3.30;;;;;;;16.46;75.58;96456.53;5072713;28;20056;-73
2023/06/28 00:57:49;;;;;;;5.53;3.15;;;;;;;16.46;75.98;96462.03;5076166;28;20416;-72
2023/06/28 01:00:16;;;;;;;6.88;3.30;;;;;;;16.47;76.46;96463.63;5075408;28;20049;-73
2023/06/28 01:02:44;;;;;;;7.05;3.20;;;;;;;16.48;77.37;96471.50;5075483;28;20404;-73
2023/06/28 01:05:13;;;;;;;5.65;2.90;;;;;;;16.44;78.18;96476.94;5074646;28;20059;-72
2023/06/28 01:07:41;;;;;;;7.28;3.40;;;;;;;16.38;78.55;96488.53;5071272;28;20049;-72
2023/06/28 01:10:08;;;;;;;6.68;3.17;;;;;;;16.34;79.32;96498.63;5072041;28;20049;-73
2023/06/28 01:12:37;;;;;;;4.15;2.95;;;;;;;16.29;80.51;96502.44;5072435;28;20040;-72
2023/06/28 01:15:05;;;;;;;6.25;3.72;;;;;;;16.22;80.91;96504.97;5073956;28;20079;-73
2023/06/28 01:17:31;;;;;;;5.22;4.03;;;;;;;16.07;82.72;96511.22;5071500;28;20051;-74
2023/06/28 01:19:58;;;;;;;6.32;4.53;;;;;;;15.79;86.28;96514.75;5071966;28;20041;-73
2023/06/28 01:22:26;;;;;;;7.25;3.78;;;;;;;15.80;86.20;96523.78;5071235;28;20037;-73
2023/06/28 01:24:56;;;;;;;7.53;3.80;;;;;;;15.70;84.02;96525.06;5071176;28;20056;-73
2023/06/28 01:27:23;;;;;;;10.93;4.35;;;;;;;15.60;84.86;96529.06;5071703;28;20393;-73
2023/06/28 01:29:57;;;;;;;9.43;4.15;;;;;;;15.50;85.86;96534.22;5072085;28;20041;-73
2023/06/28 01:32:24;;;;;;;;;;;;;;;15.47;87.23;96534.94;5071982;28;20434;-73
2023/06/28 01:34:50;;;;;;;7.28;4.18;;;;;;;15.41;88.53;96539.84;5071207;28;19962;-73
2023/06/28 01:37:17;;;;;;;8.52;4.88;;;;;;;15.31;89.16;96540.31;5071173;28;20052;-73
2023/06/28 01:39:44;;;;;;;7.65;4.00;;;;;;;15.26;89.84;96540.53;5071646;28;20041;-73
2023/06/28 01:42:14;;;;;;;7.05;3.40;;;;;;;15.22;89.93;96543.16;5071302;28;20067;-73
2023/06/28 01:44:40;;;;;;;6.18;3.83;;;;;;;15.22;90.90;96545.13;5078224;28;20037;-73
2023/06/28 01:47:07;;;;;;;6.95;4.03;;;;;;;15.21;91.18;96541.56;5070266;28;20051;-73
2023/06/28 01:49:36;;;;;;;6.80;3.88;;;;;;;15.16;91.46;96544.53;5071145;28;20598;-73
2023/06/28 01:52:03;;;;;;;7.90;4.07;;;;;;;15.06;90.83;96550.47;5070947;28;20641;-74
2023/06/28 01:54:35;;;;;;;5.15;3.50;;;;;;;14.99;91.17;96550.25;5070364;28;20068;-73
2023/06/28 01:57:02;;;;;;;7.80;4.15;;;;;;;14.93;92.36;96552.44;5070597;28;20125;-73
2023/06/28 01:59:31;;;;;;;5.25;3.60;;;;;;;14.85;92.81;96556.84;5071455;28;20381;-73
2023/06/28 02:01:58;;;;;;;4.97;3.95;;;;;;;14.81;93.70;96550.44;5070930;28;20044;-73
2023/06/28 02:04:25;;;;;;;7.90;4.40;;;;;;;14.80;95.10;96550.78;5070401;28;20083;-73
2023/06/28 02:06:51;;;;;;;8.05;4.47;;;;;;;14.74;96.14;96542.00;5071123;28;20393;-73
2023/06/28 02:09:18;;;;;;;6.28;4.47;;;;;;;14.62;96.15;96541.97;5070748;28;20052;-72
2023/06/28 02:11:44;;;;;;;11.00;4.82;;;;;;;14.56;97.24;96537.81;5070684;28;20123;-72
2023/06/28 02:14:11;;;;;;;12.52;5.32;;;;;;;14.47;98.08;96534.38;5076530;28;20384;-72
2023/06/28 02:16:41;;;;;;;9.90;5.55;;;;;;;14.29;99.52;96534.53;5071408;28;20044;-72
2023/06/28 02:19:12;;;;;;;9.25;5.28;;;;;;;14.09;100.00;96530.72;5070446;28;20064;-72
2023/06/28 02:21:40;;;;;;;8.63;5.32;;;;;;;14.09;99.82;96529.88;5070821;28;20389;-72
2023/06/28 02:24:07;;;;;;;10.68;6.38;;;;;;;13.97;100.00;96527.91;5070495;28;20514;-72
2023/06/28 02:26:34;;;;;;;8.00;5.75;;;;;;;13.77;100.00;96529.50;5069990;28;20400;-72
2023/06/28 02:29:01;;;;;;;10.10;5.82;;;;;;;13.58;100.00;96531.94;5070731;28;20055;-72
2023/06/28 02:31:27;;;;;;;7.80;5.43;;;;;;;13.73;100.00;96539.53;5070234;28;20483;-73
2023/06/28 02:33:55;;;;;;;11.48;6.88;;;;;;;13.73;100.00;96534.06;5070737;28;20049;-73
2023/06/28 02:36:22;;;;;;;8.77;5.90;;;;;;;13.93;100.00;96532.44;5069851;28;20048;-72
2023/06/28 02:38:48;;;;;;;7.75;5.50;;;;;;;13.97;100.00;96538.06;5071006;28;20038;-73
2023/06/28 02:41:15;;;;;;;13.00;6.95;;;;;;;13.96;100.00;96533.72;5069891;28;20070;-73
2023/06/28 02:43:41;;;;;;;9.98;6.30;;;;;;;13.96;100.00;96533.72;5070872;28;20052;-73
2023/06/28 02:46:08;;;;;;;10.60;6.10;;;;;;;13.95;100.00;96535.66;5070014;28;20041;-73
2023/06/28 02:48:34;;;;;;;9.30;6.13;;;;;;;13.99;100.00;96541.25;5071450;28;20045;-73
2023/06/28 02:51:02;;;;;;;11.27;6.38;;;;;;;13.84;100.00;96534.47;5071393;28;20043;-74
2023/06/28 02:53:29;;;;;;;10.20;6.85;;;;;;;13.89;100.00;96537.00;5051635;28;20041;-73
2023/06/28 02:55:55;;;;;;;10.43;6.18;;;;;;;13.98;100.00;96540.44;5058316;28;20595;-73
2023/06/28 02:58:22;;;;;;;7.60;6.07;;;;;;;14.04;100.00;96541.03;5060910;28;20497;-73
2023/06/28 03:00:49;;;;;;;11.85;7.25;;;;;;;13.89;100.00;96547.94;5052534;28;20052;-73
2023/06/28 03:03:17;;;;;;;9.68;6.65;;;;;;;14.00;100.00;96551.09;5053218;28;20056;-73
2023/06/28 03:05:43;;;;;;;10.35;6.55;;;;;;;13.81;100.00;96544.13;5057679;28;20496;-73
2023/06/28 03:08:11;;;;;;;10.70;7.03;;;;;;;13.72;100.00;96543.38;5072260;28;20051;-73
2023/06/28 03:10:38;;;;;;;8.73;6.13;;;;;;;13.61;100.00;96539.44;5071302;28;20048;-73
2023/06/28 03:13:04;;;;;;;10.20;6.95;;;;;;;13.62;100.00;96532.03;5073399;28;20045;-74
2023/06/28 03:15:31;;;;;;;9.25;5.93;;;;;;;13.53;100.00;96523.91;5082569;28;20051;-73
2023/06/28 03:17:57;;;;;;;9.45;5.70;;;;;;;13.54;100.00;96520.03;5073304;28;20041;-73
2023/06/28 03:20:25;;;;;;;7.80;5.40;;;;;;;13.39;100.00;96517.88;5050471;28;20045;-73
2023/06/28 03:22:51;;;;;;;6.93;5.38;;;;;;;13.44;100.00;96515.75;5049914;28;20560;-73
2023/06/28 03:25:19;;;;;;;10.40;6.10;;;;;;;13.48;100.00;96515.91;5051452;28;20045;-73
2023/06/28 03:27:46;;;;;;;8.65;5.88;;;;;;;13.52;100.00;96517.66;5069983;28;20120;-73
2023/06/28 03:30:12;;;;;;;8.40;4.90;;;;;;;13.54;100.00;96514.56;5069009;28;20052;-73
2023/06/28 03:32:39;;;;;;;7.05;4.45;;;;;;;13.46;100.00;96512.69;5069476;28;20040;-73
2023/06/28 03:35:06;;;;;;;6.05;4.45;;;;;;;13.50;100.00;96505.41;5069578;28;20047;-72
2023/06/28 03:37:33;;;;;;;7.88;4.80;;;;;;;13.62;100.00;96513.69;5069974;28;20064;-72
2023/06/28 03:40:00;;;;;;;19.60;6.57;;;;;;;13.58;100.00;96504.56;5069485;28;20040;-72
2023/06/28 03:42:28;;;;;;;6.22;4.70;;;;;;;13.67;100.00;96504.47;5061024;28;20040;-73
2023/06/28 03:44:54;;;;;;;5.40;3.60;;;;;;;13.73;100.00;96498.50;5069859;28;20056;-73
2023/06/28 03:47:21;;;;;;;5.95;4.32;;;;;;;13.66;100.00;96498.22;5068389;28;20060;-72
2023/06/28 03:49:48;;;;;;;7.78;4.80;;;;;;;13.49;100.00;96503.81;5069809;28;20050;-73
2023/06/28 03:52:14;;;;;;;5.90;3.88;;;;;;;13.55;100.00;96502.47;5068987;28;20047;-73
2023/06/28 03:54:41;;;;;;;7.43;4.30;;;;;;;13.59;100.00;96495.22;5069594;28;20036;-73
2023/06/28 03:57:08;;;;;;;6.90;4.50;;;;;;;13.51;100.00;96491.41;5069117;28;20500;-73
2023/06/28 03:59:35;;;;;;;8.10;4.80;;;;;;;13.52;100.00;96495.75;5069720;28;20044;-73
2023/06/28 04:02:02;;;;;;;7.38;4.63;;;;;;;13.60;100.00;96496.81;5068587;28;20052;-74
2023/06/28 04:04:29;;;;;;;9.52;5.90;;;;;;;13.65;100.00;96506.75;5069795;28;20044;-72
2023/06/28 04:06:55;;;;;;;7.70;4.88;;;;;;;13.74;100.00;96508.31;5069574;28;20036;-73
2023/06/28 04:09:22;;;;;;;10.00;6.40;;;;;;;13.72;100.00;96513.28;5069006;28;20519;-73
2023/06/28 04:11:48;;;;;;;10.98;6.90;;;;;;;13.78;100.00;96514.72;5071640;28;20127;-73
2023/06/28 04:14:14;;;;;;;13.52;6.65;;;;;;;13.87;100.00;96508.34;5072704;28;20052;-73
2023/06/28 04:16:42;;;;;;;8.45;6.05;;;;;;;13.93;100.00;96516.00;5073101;28;20400;-73
2023/06/28 04:19:09;;;;;;;8.30;6.35;;;;;;;14.00;100.00;96507.28;5073020;28;20037;-73
2023/06/28 04:21:35;;;;;;;8.38;6.50;;;;;;;14.08;100.00;96514.59;5072590;28;20055;-73
2023/06/28 04:24:02;;;;;;;11.13;7.30;;;;;;;14.01;100.00;96517.09;5072873;28;20040;-73
2023/06/28 04:26:28;;;;;;;9.52;6.88;;;;;;;14.09;100.00;96518.94;5073261;28;20089;-73
2023/06/28 04:28:55;;;;;;;11.80;7.90;;;;;;;14.09;100.00;96516.19;5072865;28;20063;-73
2023/06/28 04:31:22;;;;;;;11.98;8.70;;;;;;;14.05;100.00;96515.28;5071934;28;20048;-72
2023/06/28 04:33:51;;;;;;;8.68;7.03;;;;;;;14.01;100.00;96517.09;5073165;28;20037;-73
2023/06/28 04:36:21;;;;;;;8.82;7.28;;;;;;;14.11;100.00;96513.94;5072241;28;20053;-73
2023/06/28 04:38:52;;;;;;;11.32;9.20;;;;;;;14.14;100.00;96515.97;5072895;28;20044;-73
2023/06/28 04:41:19;;;;;;;10.38;8.07;;;;;;;14.23;100.00;96508.50;5072102;28;20044;-73
2023/06/28 04:43:45;;;;;;;13.75;8.90;;;;;;;14.12;100.00;96512.78;5072721;28;20044;-73
2023/06/28 04:46:12;;;;;;;10.20;7.72;;;;;;;14.08;100.00;96515.38;5071938;28;20049;-73
2023/06/28 04:48:40;;;;;;;11.98;8.68;;;;;;;14.00;100.00;96515.50;5073011;28;20074;-73
2023/06/28 04:51:08;;;;;;;13.23;9.27;;;;;;;14.09;100.00;96516.19;5071446;28;20492;-73
2023/06/28 04:53:35;;;;;;;12.27;8.15;;;;;;;14.23;100.00;96513.97;5072698;28;20377;-73
2023/06/28 04:56:01;;;;;;;11.02;7.82;;;;;;;14.25;100.00;96517.19;5072588;28;20049;-73
2023/06/28 04:58:28;;;;;;;9.13;7.30;;;;;;;14.20;100.00;96520.13;5072258;28;20036;-73
2023/06/28 05:00:56;;;;;;;11.93;8.80;;;;;;;14.13;100.00;96508.91;5053484;28;20041;-73
2023/06/28 05:03:27;;;;;;;9.77;7.55;;;;;;;14.27;100.00;96514.91;5071905;28;20056;-73
2023/06/28 05:05:54;;;;;;;11.07;7.90;;;;;;;14.14;100.00;96510.50;5072653;28;20478;-73
2023/06/28 05:08:22;;;;;;;13.02;7.85;;;;;;;13.98;100.00;96512.28;5071364;28;20071;-73
2023/06/28 05:10:48;;;;;;;10.05;6.93;;;;;;;13.98;100.00;96515.00;5072132;28;20044;-73
2023/06/28 05:13:15;;;;;;;11.95;7.43;;;;;;;13.99;100.00;96511.13;5071749;28;20055;-73
2023/06/28 05:15:41;;;;;;;13.90;7.65;;;;;;;13.96;100.00;96514.56;5072796;28;20487;-73
2023/06/28 05:18:08;;;;;;;17.85;7.53;;;;;;;13.80;100.00;96512.44;5072008;28;20044;-73
2023/06/28 05:20:34;;;;;;;14.70;7.35;;;;;;;13.80;100.00;96512.44;5073238;28;20067;-73
2023/06/28 05:23:12;;;;;;;12.63;7.30;;;;;;;13.99;100.00;96503.75;5074611;28;20044;-73
2023/06/28 05:25:41;;;;;;;12.13;6.82;;;;;;;14.13;100.00;96503.44;5076504;28;20043;-73
2023/06/28 05:28:11;;;;;;;14.63;8.27;;;;;;;14.08;100.00;96501.69;5075818;28;20044;-73
2023/06/28 05:30:38;;;;;;;13.18;8.07;;;;;;;14.20;100.00;96509.19;5075671;28;20108;-72
2023/06/28 05:33:04;;;;;;;13.98;7.40;;;;;;;14.22;100.00;96508.84;5076031;28;20044;-73
2023/06/28 05:35:32;;;;;;;12.52;7.22;;;;;;;14.31;100.00;96509.56;5077164;28;20044;-72
2023/06/28 05:37:59;;;;;;;10.10;6.45;;;;;;;14.10;100.00;96506.88;5076755;28;20071;-73
2023/06/28 05:40:26;;;;;;;8.25;5.95;;;;;;;14.23;100.00;96508.50;5074499;28;20044;-73
2023/06/28 05:42:54;;;;;;;12.25;6.80;;;;;;;14.16;100.00;96507.44;5073318;28;20400;-72
2023/06/28 05:45:21;;;;;;;8.05;6.03;;;;;;;14.28;100.00;96499.25;5072205;28;20051;-73
2023/06/28 05:47:47;;;;;;;8.57;6.22;;;;;;;14.45;100.00;96503.75;5072887;28;20040;-73
2023/06/28 05:50:15;;;;;;;14.80;7.15;;;;;;;14.31;99.76;96504.88;5075359;28;20042;-73
2023/06/28 05:52:42;;;;;;;10.02;6.88;;;;;;;14.32;99.51;96506.47;5078647;28;20055;-73
2023/06/28 05:55:09;;;;;;;11.95;6.60;;;;;;;14.31;99.01;96504.06;5076625;28;20520;-73
2023/06/28 05:57:36;;;;;;;9.27;6.45;;;;;;;14.25;100.00;96506.22;5077707;28;20049;-73
2023/06/28 06:00:05;;;;;;;11.70;6.78;;;;;;;14.24;99.97;96504.59;5076515;28;20369;-73
2023/06/28 06:02:31;;;;;;;7.38;6.15;;;;;;;14.31;99.42;96498.59;5077439;28;20067;-73
2023/06/28 06:04:58;;;;;;;10.82;7.20;;;;;;;14.39;100.00;96499.63;5077638;28;20036;-73
2023/06/28 06:07:25;;;;;;;11.75;5.97;;;;;;;14.56;99.44;96494.81;5077787;28;20049;-73
2023/06/28 06:09:51;;;;;;;11.90;6.20;;;;;;;14.47;98.27;96490.53;5077873;28;20061;-73
2023/06/28 06:12:18;;;;;;;9.70;6.75;;;;;;;14.60;97.57;96497.66;5075373;28;20044;-73
2023/06/28 06:14:44;;;;;;;9.70;6.35;;;;;;;14.38;96.18;96504.31;5071381;28;20543;-72
2023/06/28 06:17:12;;;;;;;7.85;6.28;;;;;;;14.43;97.39;96501.34;5070673;28;20515;-73
2023/06/28 06:19:39;;;;;;;7.65;5.80;;;;;;;14.43;96.96;96500.56;5071302;28;20043;-73
2023/06/28 06:22:06;;;;;;;13.30;6.47;;;;;;;14.32;97.10;96509.22;5069459;28;20071;-73
2023/06/28 06:24:32;;;;;;;9.00;6.05;;;;;;;14.49;97.34;96499.22;5071170;28;20040;-73
2023/06/28 06:26:59;;;;;;;8.50;5.90;;;;;;;14.33;96.39;96502.59;5071076;28;20052;-73
2023/06/28 06:29:25;;;;;;;7.93;5.78;;;;;;;14.40;96.61;96506.72;5070533;28;20041;-72
2023/06/28 06:31:53;;;;;;;10.00;6.28;;;;;;;14.30;96.45;96508.75;5069892;28;20404;-73
2023/06/28 06:34:20;;;;;;;9.23;5.88;;;;;;;14.31;96.46;96504.88;5070127;28;20044;-72
2023/06/28 06:36:47;;;;;;;8.40;6.10;;;;;;;14.32;96.84;96511.94;5070875;28;20040;-72
2023/06/28 06:39:13;;;;;;;10.13;5.65;;;;;;;14.15;93.00;96512.13;5070253;28;20045;-72
2023/06/28 06:41:40;;;;;;;9.20;5.60;;;;;;;14.17;94.85;96504.38;5070230;28;20044;-73
2023/06/28 06:44:06;;;;;;;7.78;5.30;;;;;;;14.16;94.38;96508.25;5069947;28;20040;-73
2023/06/28 06:46:33;;;;;;;12.80;5.57;;;;;;;14.22;94.01;96509.63;5069949;28;20052;-72
2023/06/28 06:48:59;;;;;;;7.60;5.78;;;;;;;14.31;93.32;96509.56;5070511;28;20040;-72
2023/06/28 06:51:27;;;;;;;7.78;5.80;;;;;;;14.33;92.37;96505.31;5069619;28;20036;-72
2023/06/28 06:53:54;;;;;;;7.22;5.57;;;;;;;14.43;93.19;96501.34;5070476;28;20067;-72
2023/06/28 06:56:22;;;;;;;9.18;5.20;;;;;;;14.58;92.49;96502.69;5069800;28;20049;-72
2023/06/28 06:58:49;;;;;;;7.65;5.38;;;;;;;14.76;92.75;96504.06;5070382;28;20512;-72
2023/06/28 07:01:15;;;;;;;10.10;5.18;;;;;;;14.78;90.93;96501.78;5069129;28;20056;-72
2023/06/28 07:03:42;;;;;;;7.35;4.53;;;;;;;14.83;91.92;96504.31;5070411;28;20393;-73
2023/06/28 07:06:08;;;;;;;12.73;4.72;;;;;;;14.86;91.13;96509.09;5069877;28;20045;-72
2023/06/28 07:08:36;;;;;;;7.40;4.75;;;;;;;15.01;91.78;96510.38;5069965;28;20044;-72
2023/06/28 07:11:03;;;;;;;9.30;4.72;;;;;;;15.03;89.07;96510.00;5069230;28;20488;-73
2023/06/28 07:13:29;;;;;;;6.95;4.50;;;;;;;15.01;88.23;96513.09;5070054;28;20052;-73
2023/06/28 07:15:56;;;;;;;7.78;4.85;;;;;;;15.23;90.28;96514.59;5069956;28;20068;-73
2023/06/28 07:18:22;;;;;;;9.20;4.20;;;;;;;15.27;87.89;96512.75;5069634;28;20052;-73
2023/06/28 07:20:49;;;;;;;8.13;4.03;;;;;;;15.37;85.73;96508.75;5069464;28;20052;-73
2023/06/28 07:23:15;;;;;;;5.97;4.20;;;;;;;15.58;86.30;96516.84;5069341;28;20048;-73
2023/06/28 07:25:43;;;;;;;6.63;4.47;;;;;;;15.57;87.12;96515.25;5067118;28;20044;-73
2023/06/28 07:28:10;;;;;;;5.57;3.83;;;;;;;15.70;86.31;96516.84;5068886;28;20052;-73
2023/06/28 07:30:53;;;;;;;9.38;3.67;;;;;;;15.82;83.47;96519.56;5069130;28;20423;-73
2023/06/28 07:33:20;;;;;;;6.88;4.35;;;;;;;15.83;84.67;96521.16;5068979;28;20132;-72
2023/06/28 07:35:46;;;;;;;5.80;3.50;;;;;;;15.98;80.98;96516.09;5069558;28;20067;-72
2023/06/28 07:38:13;;;;;;;6.32;3.53;;;;;;;15.98;80.07;96525.13;5069202;28;20048;-73
2023/06/28 07:40:39;;;;;;;7.03;3.80;;;;;;;15.83;80.75;96526.66;5069346;28;20041;-74
2023/06/28 07:43:07;;;;;;;5.82;3.42;;;;;;;15.90;80.05;96535.09;5069328;28;20043;-72
2023/06/28 07:45:34;;;;;;;6.50;3.55;;;;;;;15.95;80.82;96530.50;5070102;28;20548;-72
2023/06/28 07:48:00;;;;;;;5.00;3.42;;;;;;;16.17;80.81;96533.50;5073158;28;20503;-72
2023/06/28 07:50:27;;;;;;;11.15;3.92;;;;;;;16.16;82.70;96531.09;5073175;28;20051;-72
2023/06/28 07:52:53;;;;;;;8.07;4.22;;;;;;;16.24;79.65;96538.41;5073633;28;20037;-72
2023/06/28 07:55:20;;;;;;;7.38;3.92;;;;;;;16.33;78.46;96535.50;5073424;28;20064;-72
2023/06/28 07:57:46;;;;;;;6.47;4.10;;;;;;;16.36;78.70;96535.59;5073866;28;20047;-72
2023/06/28 08:00:16;;;;;;;7.13;4.10;;;;;;;16.61;80.82;96546.47;5073045;28;20106;-73
2023/06/28 08:02:42;;;;;;;7.47;4.15;;;;;;;16.69;77.99;96540.00;5073191;28;20114;-73
2023/06/28 08:05:09;;;;;;;8.18;3.65;;;;;;;16.76;79.72;96543.00;5072516;28;20083;-72
2023/06/28 08:07:35;;;;;;;7.35;3.78;;;;;;;16.89;77.66;96541.75;5073239;28;20052;-72
2023/06/28 08:10:02;;;;;;;6.70;3.60;;;;;;;17.01;77.42;96537.31;5072802;28;20052;-73
2023/06/28 08:12:28;;;;;;;6.60;3.58;;;;;;;17.09;76.31;96533.59;5073501;28;20075;-72
2023/06/28 08:14:55;;;;;;;7.85;3.90;;;;;;;16.94;75.24;96533.22;5073192;28;20040;-73
2023/06/28 08:17:23;;;;;;;8.43;3.90;;;;;;;17.17;75.19;96529.84;5072125;28;20051;-72
2023/06/28 08:19:49;;;;;;;5.25;3.50;;;;;;;17.32;78.06;96520.78;5072090;28;20056;-73
2023/06/28 08:22:16;;;;;;;5.90;3.50;;;;;;;17.45;72.49;96525.03;5072012;28;20051;-72
2023/06/28 08:24:42;;;;;;;6.20;3.70;;;;;;;17.44;70.88;96528.94;5073216;28;20040;-73
2023/06/28 08:27:09;;;;;;;7.18;3.83;;;;;;;17.58;72.86;96533.16;5072005;28;20047;-73
2023/06/28 08:29:35;;;;;;;7.47;3.20;;;;;;;17.80;74.47;96528.94;5072891;28;20575;-72
2023/06/28 08:32:02;;;;;;;6.15;3.58;;;;;;;17.84;75.04;96527.88;5071835;28;20059;-73
2023/06/28 08:34:30;;;;;;;7.35;3.90;;;;;;;17.83;71.87;96529.03;5073047;28;20044;-73
2023/06/28 08:36:56;;;;;;;6.25;3.40;;;;;;;18.06;73.76;96528.31;5073071;28;20051;-74
2023/06/28 08:39:23;;;;;;;6.70;3.63;;;;;;;17.94;69.17;96530.06;5072656;28;20040;-74
2023/06/28 08:41:51;;;;;;;6.43;3.67;;;;;;;18.11;70.67;96528.03;5072339;28;20511;-75
2023/06/28 08:44:21;;;;;;;5.80;3.53;;;;;;;18.07;68.84;96532.69;5072454;28;20052;-75
2023/06/28 08:46:49;;;;;;;6.85;4.07;;;;;;;18.10;68.18;96526.44;5071647;28;20072;-74
2023/06/28 08:49:17;;;;;;;6.07;3.90;;;;;;;18.30;68.56;96528.03;5072217;28;20045;-74
2023/06/28 08:51:46;;;;;;;7.90;3.83;;;;;;;18.45;71.54;96524.41;5071755;28;20056;-75
2023/06/28 08:54:14;;;;;;;5.43;2.95;;;;;;;18.76;68.83;96520.66;5071112;28;20776;-72
2023/06/28 08:56:41;;;;;;;4.43;2.75;;;;;;;19.07;68.00;96529.06;5071776;28;20174;-73
2023/06/28 08:59:09;;;;;;;6.05;2.45;;;;;;;19.01;61.08;96532.16;5071808;28;20041;-74
2023/06/28 09:01:36;;;;;;;5.38;2.42;;;;;;;19.10;64.08;96518.06;5072176;28;20040;-73
2023/06/28 09:04:05;;;;;;;5.57;2.30;;;;;;;19.19;62.22;96510.34;5071823;28;20060;-73
2023/06/28 09:06:31;;;;;;;4.90;2.47;;;;;;;19.21;64.69;96515.47;5071959;28;20045;-73
2023/06/28 09:09:01;;;;;;;4.35;2.83;;;;;;;19.21;60.53;96523.75;5073277;28;20045;-73
2023/06/28 09:11:27;;;;;;;3.42;2.03;;;;;;;19.18;61.22;96527.28;5073917;28;20036;-73
2023/06/28 09:13:55;;;;;;;6.47;2.83;;;;;;;19.31;63.30;96528.66;5075165;28;20052;-73
2023/06/28 09:16:22;;;;;;;4.68;2.42;;;;;;;19.57;60.11;96527.88;5075598;28;20484;-73
2023/06/28 09:18:49;;;;;;;4.78;2.20;;;;;;;19.47;58.54;96515.53;5075207;28;20047;-73
2023/06/28 09:21:25;;;;;;;6.15;2.78;;;;;;;19.63;58.92;96523.69;5074714;28;20122;-73
2023/06/28 09:23:52;;;;;;;5.47;2.97;;;;;;;19.04;56.64;96517.59;5075761;28;20185;-73
2023/06/28 09:26:20;;;;;;;5.15;2.97;;;;;;;19.16;56.41;96515.78;5074993;28;20071;-73
2023/06/28 09:28:47;;;;;;;5.93;2.53;;;;;;;19.10;55.45;96506.25;5076902;28;20054;-73
2023/06/28 09:31:19;;;;;;;5.47;2.45;;;;;;;19.05;55.66;96510.09;5075112;28;20036;-73
2023/06/28 09:33:45;;;;;;;5.13;2.22;;;;;;;18.93;53.49;96519.38;5076611;28;20040;-73
2023/06/28 09:36:12;;;;;;;5.38;2.15;;;;;;;19.16;54.46;96515.78;5075630;28;20045;-73
2023/06/28 09:38:43;;;;;;;3.75;2.13;;;;;;;19.30;54.63;96516.03;5076996;28;20044;-73
2023/06/28 09:41:10;;;;;;;5.68;2.35;;;;;;;19.40;57.69;96512.63;5072536;28;20455;-73
2023/06/28 09:43:38;;;;;;;7.05;2.35;;;;;;;19.75;57.12;96511.59;5071960;28;20045;-73
2023/06/28 09:46:12;;;;;;;4.07;2.40;;;;;;;19.87;56.51;96505.03;5071155;28;20043;-73
2023/06/28 09:48:42;;;;;;;6.68;2.80;;;;;;;19.63;56.78;96500.75;5067603;28;20269;-73
2023/06/28 09:51:11;;;;;;;5.57;2.50;;;;;;;19.65;57.83;96509.50;5070653;28;20056;-73
2023/06/28 09:53:49;;;;;;;5.55;2.65;;;;;;;19.82;57.85;96506.16;5071666;28;20411;-73
2023/06/28 09:56:16;;;;;;;5.35;2.45;;;;;;;20.15;55.49;96504.59;5069563;28;20060;-73
2023/06/28 09:58:46;;;;;;;5.65;2.70;;;;;;;20.22;56.60;96499.97;5071081;28;20051;-73
2023/06/28 10:01:15;;;;;;;5.75;2.40;;;;;;;20.53;56.21;96498.75;5070222;28;20492;-73
2023/06/28 10:03:44;;;;;;;7.25;2.92;;;;;;;20.87;55.02;96495.91;5071398;28;20040;-73
2023/06/28 10:06:11;;;;;;;5.10;2.53;;;;;;;20.74;49.65;96497.41;5070502;28;20513;-74
2023/06/28 10:08:39;;;;;;;5.55;2.80;;;;;;;20.47;51.09;96492.00;5070142;28;20040;-72
2023/06/28 10:11:09;;;;;;;4.07;2.30;;;;;;;20.12;50.86;96495.09;5070433;28;20044;-72
2023/06/28 10:13:37;;;;;;;3.67;2.00;;;;;;;20.13;54.70;96490.38;5070944;28;20522;-73
2023/06/28 10:16:14;;;;;;;5.03;2.47;;;;;;;20.11;55.99;96487.19;5070856;28;20052;-73
2023/06/28 10:18:42;;;;;;;6.53;2.90;;;;;;;20.17;53.97;96489.25;5071036;28;20041;-73
2023/06/28 10:21:10;;;;;;;6.03;2.60;;;;;;;20.32;55.54;96492.97;5070642;28;20451;-73
2023/06/28 10:23:39;;;;;;;6.20;3.33;;;;;;;20.21;52.49;96487.31;5071314;28;20044;-73
2023/06/28 10:26:06;;;;;;;4.07;2.60;;;;;;;20.20;55.27;96490.44;5069903;28;20047;-75
2023/06/28 10:28:34;;;;;;;5.43;2.75;;;;;;;20.11;56.68;96489.97;5070793;28;20048;-76
2023/06/28 10:31:01;;;;;;;5.93;2.55;;;;;;;20.20;53.89;96490.44;5070896;28;20045;-74
2023/06/28 10:33:31;;;;;;;5.80;2.92;;;;;;;20.26;50.96;96500.81;5070708;28;20037;-74
2023/06/28 10:36:00;;;;;;;5.75;2.83;;;;;;;20.15;53.29;96494.38;5070843;28;20563;-74
2023/06/28 10:38:27;;;;;;;7.47;3.22;;;;;;;20.39;56.70;96489.47;5069713;28;20514;-72
2023/06/28 10:40:54;;;;;;;5.70;2.30;;;;;;;20.52;54.62;96491.66;5070385;28;20489;-73
2023/06/28 10:43:23;;;;;;;4.50;2.83;;;;;;;20.52;50.96;96491.66;5070241;28;20447;-73
2023/06/28 10:45:50;;;;;;;5.57;3.20;;;;;;;20.48;53.79;96490.00;5063781;28;20064;-73
2023/06/28 10:48:19;;;;;;;5.78;2.65;;;;;;;20.77;52.52;96486.34;5069620;28;20045;-73
2023/06/28 10:50:49;;;;;;;5.30;2.95;;;;;;;20.85;56.87;96481.69;5070544;28;20408;-73
2023/06/28 10:53:23;;;;;;;5.82;3.08;;;;;;;20.94;55.41;96497.97;5069622;28;20048;-73
2023/06/28 10:56:10;;;;;;;5.90;2.65;;;;;;;20.94;50.32;96490.47;5070390;28;20698;-72
2023/06/28 10:58:38;;;;;;;5.70;2.25;;;;;;;21.09;51.41;96497.72;5069908;28;20044;-73
2023/06/28 11:01:06;;;;;;;5.38;2.30;;;;;;;21.06;49.55;96492.13;5069768;28;20044;-72
2023/06/28 11:03:38;;;;;;;5.80;2.25;;;;;;;21.01;49.96;96487.75;5068900;28;20044;-72
2023/06/28 11:06:07;;;;;;;6.07;2.70;;;;;;;20.91;49.09;96491.22;5069502;28;20131;-73
2023/06/28 11:08:38;;;;;;;6.10;3.00;;;;;;;20.85;50.61;96490.78;5070253;28;20059;-73
2023/06/28 11:11:06;;;;;;;6.43;2.90;;;;;;;20.69;50.48;96492.19;5069649;28;20147;-72
2023/06/28 11:13:44;;;;;;;5.97;2.92;;;;;;;20.58;51.93;96492.88;5070148;28;20045;-72
2023/06/28 11:16:14;;;;;;;4.80;2.88;;;;;;;20.39;50.92;96487.50;5069502;28;20530;-72
2023/06/28 11:18:40;;;;;;;7.22;2.63;;;;;;;20.44;50.62;96483.59;5070290;28;20127;-73
2023/06/28 11:21:14;;;;;;;4.63;2.95;;;;;;;20.73;52.67;96490.28;5068107;28;20040;-73
2023/06/28 11:23:42;;;;;;;5.22;2.63;;;;;;;20.83;49.26;96490.38;5069879;28;20048;-75
2023/06/28 11:26:12;;;;;;;4.70;2.70;;;;;;;20.69;49.77;96479.16;5069364;28;20055;-75
2023/06/28 11:28:48;;;;;;;7.22;2.72;;;;;;;20.76;51.72;96483.97;5069940;28;20048;-75
2023/06/28 11:31:16;;;;;;;5.25;2.70;;;;;;;20.78;51.00;96482.41;5069128;28;20033;-74